Time;durP1;ratioP1;P1;durP2;ratioP2;P2;SDS_P1;SDS_P2;PMS_P1;PMS_P2;Temp;Humidity;BMP_temperature;BMP_pressure;BME280_temperature;BME280_humidity;BME280_pressure;Samples;Min_cycle;Max_cycle;Signal;HPM_P1;HPM_P2
2020/10/28 00:00:42;;;;;;;1.95;1.75;;;;;;;2.72;100;94904.61;;;;
2020/10/28 00:01:43;;;;;;;1.95;1.75;;;;;;;2.72;100;94904.61;;;;
2020/10/28 00:02:44;;;;;;;1.95;1.75;;;;;;;2.72;100;94904.61;;;;
2020/10/28 00:03:45;;;;;;;1.95;1.75;;;;;;;2.72;100;94904.61;;;;
2020/10/28 00:04:45;;;;;;;1.95;1.75;;;;;;;2.72;100;94904.61;;;;
2020/10/28 00:05:46;;;;;;;1.95;1.75;;;;;;;2.72;100;94904.61;;;;
2020/10/28 00:06:46;;;;;;;1.95;1.75;;;;;;;2.72;100;94904.61;;;;
2020/10/28 00:07:47;;;;;;;1.95;1.75;;;;;;;2.72;100;94904.61;;;;
2020/10/28 00:08:47;;;;;;;1.95;1.75;;;;;;;2.72;100;94904.61;;;;
2020/10/28 00:09:48;;;;;;;1.95;1.75;;;;;;;2.72;100;94904.61;;;;
2020/10/28 00:10:48;;;;;;;1.8;1.7;;;;;;;2.63;100;94899.93;;;;
2020/10/28 00:11:49;;;;;;;1.8;1.7;;;;;;;2.63;100;94899.93;;;;
2020/10/28 00:12:49;;;;;;;1.8;1.7;;;;;;;2.63;100;94899.93;;;;
2020/10/28 00:13:50;;;;;;;1.8;1.7;;;;;;;2.63;100;94899.93;;;;
2020/10/28 00:14:51;;;;;;;1.8;1.7;;;;;;;2.63;100;94899.93;;;;
2020/10/28 00:15:52;;;;;;;1.8;1.7;;;;;;;2.63;100;94899.93;;;;
2020/10/28 00:16:52;;;;;;;1.8;1.7;;;;;;;2.63;100;94899.93;;;;
2020/10/28 00:17:53;;;;;;;1.8;1.7;;;;;;;2.63;100;94899.93;;;;
2020/10/28 00:18:53;;;;;;;1.8;1.7;;;;;;;2.63;100;94899.93;;;;
2020/10/28 00:19:54;;;;;;;1.8;1.7;;;;;;;2.63;100;94899.93;;;;
2020/10/28 00:20:54;;;;;;;2.2;1.6;;;;;;;2.68;100;94899.36;;;;
2020/10/28 00:21:55;;;;;;;2.2;1.6;;;;;;;2.68;100;94899.36;;;;
2020/10/28 00:22:55;;;;;;;2.2;1.6;;;;;;;2.68;100;94899.36;;;;
2020/10/28 00:23:56;;;;;;;2.2;1.6;;;;;;;2.68;100;94899.36;;;;
2020/10/28 00:24:56;;;;;;;2.2;1.6;;;;;;;2.68;100;94899.36;;;;
2020/10/28 00:25:57;;;;;;;2.2;1.6;;;;;;;2.68;100;94899.36;;;;
2020/10/28 00:26:57;;;;;;;2.2;1.6;;;;;;;2.68;100;94899.36;;;;
2020/10/28 00:27:58;;;;;;;2.2;1.6;;;;;;;2.68;100;94899.36;;;;
2020/10/28 00:28:59;;;;;;;2.2;1.6;;;;;;;2.68;100;94899.36;;;;
2020/10/28 00:29:59;;;;;;;2.2;1.6;;;;;;;2.68;100;94899.36;;;;
2020/10/28 00:31:00;;;;;;;2.2;1.6;;;;;;;2.68;100;94899.36;;;;
2020/10/28 00:32:00;;;;;;;2.2;1.4;;;;;;;2.68;100;94902.32;;;;
2020/10/28 00:33:01;;;;;;;2.2;1.4;;;;;;;2.68;100;94902.32;;;;
2020/10/28 00:34:01;;;;;;;2.2;1.4;;;;;;;2.68;100;94902.32;;;;
2020/10/28 00:35:02;;;;;;;2.2;1.4;;;;;;;2.68;100;94902.32;;;;
2020/10/28 00:36:02;;;;;;;2.2;1.4;;;;;;;2.68;100;94902.32;;;;
2020/10/28 00:37:03;;;;;;;2.2;1.4;;;;;;;2.68;100;94902.32;;;;
2020/10/28 00:38:04;;;;;;;2.2;1.4;;;;;;;2.68;100;94902.32;;;;
2020/10/28 00:39:04;;;;;;;2.2;1.4;;;;;;;2.68;100;94902.32;;;;
2020/10/28 00:40:05;;;;;;;2.2;1.4;;;;;;;2.68;100;94902.32;;;;
2020/10/28 00:41:05;;;;;;;2.2;1.4;;;;;;;2.68;100;94902.32;;;;
2020/10/28 00:42:06;;;;;;;2.25;1.5;;;;;;;2.74;100;94914.54;;;;
2020/10/28 00:43:06;;;;;;;2.25;1.5;;;;;;;2.74;100;94914.54;;;;
2020/10/28 00:44:07;;;;;;;2.25;1.5;;;;;;;2.74;100;94914.54;;;;
2020/10/28 00:45:07;;;;;;;2.25;1.5;;;;;;;2.74;100;94914.54;;;;
2020/10/28 00:46:08;;;;;;;2.25;1.5;;;;;;;2.74;100;94914.54;;;;
2020/10/28 00:47:08;;;;;;;2.25;1.5;;;;;;;2.74;100;94914.54;;;;
2020/10/28 00:48:09;;;;;;;2.25;1.5;;;;;;;2.74;100;94914.54;;;;
2020/10/28 00:49:10;;;;;;;2.25;1.5;;;;;;;2.74;100;94914.54;;;;
2020/10/28 00:50:11;;;;;;;2.25;1.5;;;;;;;2.74;100;94914.54;;;;
2020/10/28 00:51:11;;;;;;;2.25;1.5;;;;;;;2.74;100;94914.54;;;;
2020/10/28 00:52:12;;;;;;;2.25;1.5;;;;;;;2.74;100;94914.54;;;;
2020/10/28 00:53:12;;;;;;;1.6;1.35;;;;;;;2.68;100;94923.75;;;;
2020/10/28 00:54:13;;;;;;;1.6;1.35;;;;;;;2.68;100;94923.75;;;;
2020/10/28 00:55:13;;;;;;;1.6;1.35;;;;;;;2.68;100;94923.75;;;;
2020/10/28 00:56:14;;;;;;;1.6;1.35;;;;;;;2.68;100;94923.75;;;;
2020/10/28 00:57:14;;;;;;;1.6;1.35;;;;;;;2.68;100;94923.75;;;;
2020/10/28 00:58:15;;;;;;;1.6;1.35;;;;;;;2.68;100;94923.75;;;;
2020/10/28 00:59:15;;;;;;;1.6;1.35;;;;;;;2.68;100;94923.75;;;;
2020/10/28 01:00:16;;;;;;;1.6;1.35;;;;;;;2.68;100;94923.75;;;;
2020/10/28 01:01:16;;;;;;;1.6;1.35;;;;;;;2.68;100;94923.75;;;;
2020/10/28 01:02:17;;;;;;;1.6;1.35;;;;;;;2.68;100;94923.75;;;;
2020/10/28 01:03:17;;;;;;;1.6;1.35;;;;;;;2.68;100;94923.75;;;;
2020/10/28 01:04:18;;;;;;;2.299999;1.45;;;;;;;2.76;100;94911.17;;;;
2020/10/28 01:05:18;;;;;;;2.299999;1.45;;;;;;;2.76;100;94911.17;;;;
2020/10/28 01:06:19;;;;;;;2.299999;1.45;;;;;;;2.76;100;94911.17;;;;
2020/10/28 01:07:19;;;;;;;2.299999;1.45;;;;;;;2.76;100;94911.17;;;;
2020/10/28 01:08:20;;;;;;;2.299999;1.45;;;;;;;2.76;100;94911.17;;;;
2020/10/28 01:09:20;;;;;;;2.299999;1.45;;;;;;;2.76;100;94911.17;;;;
2020/10/28 01:10:21;;;;;;;2.299999;1.45;;;;;;;2.76;100;94911.17;;;;
2020/10/28 01:11:21;;;;;;;2.299999;1.45;;;;;;;2.76;100;94911.17;;;;
2020/10/28 01:12:22;;;;;;;2.299999;1.45;;;;;;;2.76;100;94911.17;;;;
2020/10/28 01:13:23;;;;;;;2.299999;1.45;;;;;;;2.76;100;94911.17;;;;
2020/10/28 01:14:23;;;;;;;1.4;1.3;;;;;;;2.75;100;94912.62;;;;
2020/10/28 01:15:24;;;;;;;1.4;1.3;;;;;;;2.75;100;94912.62;;;;
2020/10/28 01:16:24;;;;;;;1.4;1.3;;;;;;;2.75;100;94912.62;;;;
2020/10/28 01:17:25;;;;;;;1.4;1.3;;;;;;;2.75;100;94912.62;;;;
2020/10/28 01:18:25;;;;;;;1.4;1.3;;;;;;;2.75;100;94912.62;;;;
2020/10/28 01:19:26;;;;;;;1.4;1.3;;;;;;;2.75;100;94912.62;;;;
2020/10/28 01:20:26;;;;;;;1.4;1.3;;;;;;;2.75;100;94912.62;;;;
2020/10/28 01:21:27;;;;;;;1.4;1.3;;;;;;;2.75;100;94912.62;;;;
2020/10/28 01:22:27;;;;;;;1.4;1.3;;;;;;;2.75;100;94912.62;;;;
2020/10/28 01:23:28;;;;;;;1.4;1.3;;;;;;;2.75;100;94912.62;;;;
2020/10/28 01:24:28;;;;;;;1.4;1.3;;;;;;;2.75;100;94912.62;;;;
2020/10/28 01:25:29;;;;;;;1.5;1.35;;;;;;;2.77;100;94910.16;;;;
2020/10/28 01:26:29;;;;;;;1.5;1.35;;;;;;;2.77;100;94910.16;;;;
2020/10/28 01:27:30;;;;;;;1.5;1.35;;;;;;;2.77;100;94910.16;;;;
2020/10/28 01:28:30;;;;;;;1.5;1.35;;;;;;;2.77;100;94910.16;;;;
2020/10/28 01:29:31;;;;;;;1.5;1.35;;;;;;;2.77;100;94910.16;;;;
2020/10/28 01:30:31;;;;;;;1.5;1.35;;;;;;;2.77;100;94910.16;;;;
2020/10/28 01:31:32;;;;;;;1.5;1.35;;;;;;;2.77;100;94910.16;;;;
2020/10/28 01:32:32;;;;;;;1.5;1.35;;;;;;;2.77;100;94910.16;;;;
2020/10/28 01:33:33;;;;;;;1.5;1.35;;;;;;;2.77;100;94910.16;;;;
2020/10/28 01:34:33;;;;;;;1.5;1.35;;;;;;;2.77;100;94910.16;;;;
2020/10/28 01:35:34;;;;;;;1.7;1.35;;;;;;;2.7;100;94893.2;;;;
2020/10/28 01:36:34;;;;;;;1.7;1.35;;;;;;;2.7;100;94893.2;;;;
2020/10/28 01:37:36;;;;;;;1.7;1.35;;;;;;;2.7;100;94893.2;;;;
2020/10/28 01:38:36;;;;;;;1.7;1.35;;;;;;;2.7;100;94893.2;;;;
2020/10/28 01:39:37;;;;;;;1.7;1.35;;;;;;;2.7;100;94893.2;;;;
2020/10/28 01:40:37;;;;;;;1.7;1.35;;;;;;;2.7;100;94893.2;;;;
2020/10/28 01:41:38;;;;;;;1.7;1.35;;;;;;;2.7;100;94893.2;;;;
2020/10/28 01:42:44;;;;;;;1.7;1.35;;;;;;;2.7;100;94893.2;;;;
2020/10/28 01:43:45;;;;;;;1.7;1.35;;;;;;;2.7;100;94893.2;;;;
2020/10/28 01:44:45;;;;;;;1.7;1.35;;;;;;;2.7;100;94893.2;;;;
2020/10/28 01:45:46;;;;;;;1.7;1.35;;;;;;;2.7;100;94893.2;;;;
2020/10/28 01:46:46;;;;;;;1.9;1.55;;;;;;;2.75;100;94881.97;;;;
2020/10/28 01:47:48;;;;;;;1.9;1.55;;;;;;;2.75;100;94881.97;;;;
2020/10/28 01:48:49;;;;;;;1.9;1.55;;;;;;;2.75;100;94881.97;;;;
2020/10/28 01:49:49;;;;;;;1.9;1.55;;;;;;;2.75;100;94881.97;;;;
2020/10/28 01:50:50;;;;;;;1.9;1.55;;;;;;;2.75;100;94881.97;;;;
2020/10/28 01:51:50;;;;;;;1.9;1.55;;;;;;;2.75;100;94881.97;;;;
2020/10/28 01:52:51;;;;;;;1.9;1.55;;;;;;;2.75;100;94881.97;;;;
2020/10/28 01:53:52;;;;;;;1.9;1.55;;;;;;;2.75;100;94881.97;;;;
2020/10/28 01:54:53;;;;;;;1.9;1.55;;;;;;;2.75;100;94881.97;;;;
2020/10/28 01:55:53;;;;;;;1.9;1.55;;;;;;;2.75;100;94881.97;;;;
2020/10/28 01:56:54;;;;;;;1.45;1.3;;;;;;;2.76;100;94885.35;;;;
2020/10/28 01:57:57;;;;;;;1.45;1.3;;;;;;;2.76;100;94885.35;;;;
2020/10/28 01:58:57;;;;;;;1.45;1.3;;;;;;;2.76;100;94885.35;;;;
2020/10/28 01:59:58;;;;;;;1.45;1.3;;;;;;;2.76;100;94885.35;;;;
2020/10/28 02:00:59;;;;;;;1.45;1.3;;;;;;;2.76;100;94885.35;;;;
2020/10/28 02:01:59;;;;;;;1.45;1.3;;;;;;;2.76;100;94885.35;;;;
2020/10/28 02:03:00;;;;;;;1.45;1.3;;;;;;;2.76;100;94885.35;;;;
2020/10/28 02:04:00;;;;;;;1.45;1.3;;;;;;;2.76;100;94885.35;;;;
2020/10/28 02:05:01;;;;;;;1.45;1.3;;;;;;;2.76;100;94885.35;;;;
2020/10/28 02:06:02;;;;;;;1.45;1.3;;;;;;;2.76;100;94885.35;;;;
2020/10/28 02:07:03;;;;;;;1.45;1.3;;;;;;;2.76;100;94885.35;;;;
2020/10/28 02:08:03;;;;;;;1.6;1.4;;;;;;;2.78;100;94875.31;;;;
2020/10/28 02:09:04;;;;;;;1.6;1.4;;;;;;;2.78;100;94875.31;;;;
2020/10/28 02:10:07;;;;;;;1.6;1.4;;;;;;;2.78;100;94875.31;;;;
2020/10/28 02:11:07;;;;;;;1.6;1.4;;;;;;;2.78;100;94875.31;;;;
2020/10/28 02:12:08;;;;;;;1.6;1.4;;;;;;;2.78;100;94875.31;;;;
2020/10/28 02:13:09;;;;;;;1.6;1.4;;;;;;;2.78;100;94875.31;;;;
2020/10/28 02:14:10;;;;;;;1.6;1.4;;;;;;;2.78;100;94875.31;;;;
2020/10/28 02:15:10;;;;;;;1.6;1.4;;;;;;;2.78;100;94875.31;;;;
2020/10/28 02:16:12;;;;;;;1.6;1.4;;;;;;;2.78;100;94875.31;;;;
2020/10/28 02:17:13;;;;;;;1.6;1.4;;;;;;;2.78;100;94875.31;;;;
2020/10/28 02:18:13;;;;;;;2.5;1.5;;;;;;;2.7;100;94869.34;;;;
2020/10/28 02:19:14;;;;;;;2.5;1.5;;;;;;;2.7;100;94869.34;;;;
2020/10/28 02:20:15;;;;;;;2.5;1.5;;;;;;;2.7;100;94869.34;;;;
2020/10/28 02:21:15;;;;;;;2.5;1.5;;;;;;;2.7;100;94869.34;;;;
2020/10/28 02:22:16;;;;;;;2.5;1.5;;;;;;;2.7;100;94869.34;;;;
2020/10/28 02:23:16;;;;;;;2.5;1.5;;;;;;;2.7;100;94869.34;;;;
2020/10/28 02:24:17;;;;;;;2.5;1.5;;;;;;;2.7;100;94869.34;;;;
2020/10/28 02:25:17;;;;;;;2.5;1.5;;;;;;;2.7;100;94869.34;;;;
2020/10/28 02:26:18;;;;;;;2.5;1.5;;;;;;;2.7;100;94869.34;;;;
2020/10/28 02:27:19;;;;;;;2.5;1.5;;;;;;;2.7;100;94869.34;;;;
2020/10/28 02:28:20;;;;;;;2.5;1.5;;;;;;;2.7;100;94869.34;;;;
2020/10/28 02:29:21;;;;;;;3.5;1.3;;;;;;;2.68;100;94874.84;;;;
2020/10/28 02:30:21;;;;;;;3.5;1.3;;;;;;;2.68;100;94874.84;;;;
2020/10/28 02:31:21;;;;;;;3.5;1.3;;;;;;;2.68;100;94874.84;;;;
2020/10/28 02:32:23;;;;;;;3.5;1.3;;;;;;;2.68;100;94874.84;;;;
2020/10/28 02:33:24;;;;;;;3.5;1.3;;;;;;;2.68;100;94874.84;;;;
2020/10/28 02:34:25;;;;;;;3.5;1.3;;;;;;;2.68;100;94874.84;;;;
2020/10/28 02:35:25;;;;;;;3.5;1.3;;;;;;;2.68;100;94874.84;;;;
2020/10/28 02:36:26;;;;;;;3.5;1.3;;;;;;;2.68;100;94874.84;;;;
2020/10/28 02:37:26;;;;;;;3.5;1.3;;;;;;;2.68;100;94874.84;;;;
2020/10/28 02:38:27;;;;;;;3.5;1.3;;;;;;;2.68;100;94874.84;;;;
2020/10/28 02:39:27;;;;;;;1.4;1.3;;;;;;;2.62;100;94872.49;;;;
2020/10/28 02:40:28;;;;;;;1.4;1.3;;;;;;;2.62;100;94872.49;;;;
2020/10/28 02:41:28;;;;;;;1.4;1.3;;;;;;;2.62;100;94872.49;;;;
2020/10/28 02:42:28;;;;;;;1.4;1.3;;;;;;;2.62;100;94872.49;;;;
2020/10/28 02:43:29;;;;;;;1.4;1.3;;;;;;;2.62;100;94872.49;;;;
2020/10/28 02:44:30;;;;;;;1.4;1.3;;;;;;;2.62;100;94872.49;;;;
2020/10/28 02:45:31;;;;;;;1.4;1.3;;;;;;;2.62;100;94872.49;;;;
2020/10/28 02:46:31;;;;;;;1.4;1.3;;;;;;;2.62;100;94872.49;;;;
2020/10/28 02:47:32;;;;;;;1.4;1.3;;;;;;;2.62;100;94872.49;;;;
2020/10/28 02:48:32;;;;;;;1.4;1.3;;;;;;;2.62;100;94872.49;;;;
2020/10/28 02:49:33;;;;;;;1.4;1.3;;;;;;;2.62;100;94872.49;;;;
2020/10/28 02:50:44;;;;;;;1.35;1.25;;;;;;;2.68;100;94867.79;;;;
2020/10/28 02:51:45;;;;;;;1.35;1.25;;;;;;;2.68;100;94867.79;;;;
2020/10/28 02:52:45;;;;;;;1.35;1.25;;;;;;;2.68;100;94867.79;;;;
2020/10/28 02:53:46;;;;;;;1.35;1.25;;;;;;;2.68;100;94867.79;;;;
2020/10/28 02:54:47;;;;;;;1.35;1.25;;;;;;;2.68;100;94867.79;;;;
2020/10/28 02:55:47;;;;;;;1.35;1.25;;;;;;;2.68;100;94867.79;;;;
2020/10/28 02:56:48;;;;;;;1.35;1.25;;;;;;;2.68;100;94867.79;;;;
2020/10/28 02:57:48;;;;;;;1.35;1.25;;;;;;;2.68;100;94867.79;;;;
2020/10/28 02:58:49;;;;;;;1.35;1.25;;;;;;;2.68;100;94867.79;;;;
2020/10/28 02:59:49;;;;;;;1.35;1.25;;;;;;;2.68;100;94867.79;;;;
2020/10/28 03:00:50;;;;;;;1.5;1.3;;;;;;;2.73;100;94862.68;;;;
2020/10/28 03:01:50;;;;;;;1.5;1.3;;;;;;;2.73;100;94862.68;;;;
2020/10/28 03:02:51;;;;;;;1.5;1.3;;;;;;;2.73;100;94862.68;;;;
2020/10/28 03:03:51;;;;;;;1.5;1.3;;;;;;;2.73;100;94862.68;;;;
2020/10/28 03:04:52;;;;;;;1.5;1.3;;;;;;;2.73;100;94862.68;;;;
2020/10/28 03:05:52;;;;;;;1.5;1.3;;;;;;;2.73;100;94862.68;;;;
2020/10/28 03:06:53;;;;;;;1.5;1.3;;;;;;;2.73;100;94862.68;;;;
2020/10/28 03:07:53;;;;;;;1.5;1.3;;;;;;;2.73;100;94862.68;;;;
2020/10/28 03:08:54;;;;;;;1.5;1.3;;;;;;;2.73;100;94862.68;;;;
2020/10/28 03:09:54;;;;;;;1.5;1.3;;;;;;;2.73;100;94862.68;;;;
2020/10/28 03:10:55;;;;;;;1.5;1.3;;;;;;;2.73;100;94862.68;;;;
2020/10/28 03:11:56;;;;;;;1.4;1.15;;;;;;;3.02;100;94868.14;;;;
2020/10/28 03:12:56;;;;;;;1.4;1.15;;;;;;;3.02;100;94868.14;;;;
2020/10/28 03:13:57;;;;;;;1.4;1.15;;;;;;;3.02;100;94868.14;;;;
2020/10/28 03:14:57;;;;;;;1.4;1.15;;;;;;;3.02;100;94868.14;;;;
2020/10/28 03:15:58;;;;;;;1.4;1.15;;;;;;;3.02;100;94868.14;;;;
2020/10/28 03:16:58;;;;;;;1.4;1.15;;;;;;;3.02;100;94868.14;;;;
2020/10/28 03:17:59;;;;;;;1.4;1.15;;;;;;;3.02;100;94868.14;;;;
2020/10/28 03:18:59;;;;;;;1.4;1.15;;;;;;;3.02;100;94868.14;;;;
2020/10/28 03:20:00;;;;;;;1.4;1.15;;;;;;;3.02;100;94868.14;;;;
2020/10/28 03:21:07;;;;;;;1.4;1.15;;;;;;;3.02;100;94868.14;;;;
2020/10/28 03:22:08;;;;;;;1.3;1.2;;;;;;;3.33;100;94890.67;;;;
2020/10/28 03:23:08;;;;;;;1.3;1.2;;;;;;;3.33;100;94890.67;;;;
2020/10/28 03:24:09;;;;;;;1.3;1.2;;;;;;;3.33;100;94890.67;;;;
2020/10/28 03:25:09;;;;;;;1.3;1.2;;;;;;;3.33;100;94890.67;;;;
2020/10/28 03:26:10;;;;;;;1.3;1.2;;;;;;;3.33;100;94890.67;;;;
2020/10/28 03:27:11;;;;;;;1.3;1.2;;;;;;;3.33;100;94890.67;;;;
2020/10/28 03:28:11;;;;;;;1.3;1.2;;;;;;;3.33;100;94890.67;;;;
2020/10/28 03:29:13;;;;;;;1.3;1.2;;;;;;;3.33;100;94890.67;;;;
2020/10/28 03:30:14;;;;;;;1.3;1.2;;;;;;;3.33;100;94890.67;;;;
2020/10/28 03:31:14;;;;;;;1.3;1.2;;;;;;;3.33;100;94890.67;;;;
2020/10/28 03:32:15;;;;;;;1.3;1.2;;;;;;;3.33;100;94890.67;;;;
2020/10/28 03:33:15;;;;;;;1.2;1.1;;;;;;;3.68;100;94903.8;;;;
2020/10/28 03:34:16;;;;;;;1.2;1.1;;;;;;;3.68;100;94903.8;;;;
2020/10/28 03:35:17;;;;;;;1.2;1.1;;;;;;;3.68;100;94903.8;;;;
2020/10/28 03:36:18;;;;;;;1.2;1.1;;;;;;;3.68;100;94903.8;;;;
2020/10/28 03:37:18;;;;;;;1.2;1.1;;;;;;;3.68;100;94903.8;;;;
2020/10/28 03:38:19;;;;;;;1.2;1.1;;;;;;;3.68;100;94903.8;;;;
2020/10/28 03:39:19;;;;;;;1.2;1.1;;;;;;;3.68;100;94903.8;;;;
2020/10/28 03:40:20;;;;;;;1.2;1.1;;;;;;;3.68;100;94903.8;;;;
2020/10/28 03:41:20;;;;;;;1.2;1.1;;;;;;;3.68;100;94903.8;;;;
2020/10/28 03:42:21;;;;;;;1.2;1.1;;;;;;;3.68;100;94903.8;;;;
2020/10/28 03:43:21;;;;;;;1.15;1.1;;;;;;;3.93;100;94901.76;;;;
2020/10/28 03:44:22;;;;;;;1.15;1.1;;;;;;;3.93;100;94901.76;;;;
2020/10/28 03:45:22;;;;;;;1.15;1.1;;;;;;;3.93;100;94901.76;;;;
2020/10/28 03:46:23;;;;;;;1.15;1.1;;;;;;;3.93;100;94901.76;;;;
2020/10/28 03:47:24;;;;;;;1.15;1.1;;;;;;;3.93;100;94901.76;;;;
2020/10/28 03:48:24;;;;;;;1.15;1.1;;;;;;;3.93;100;94901.76;;;;
2020/10/28 03:49:24;;;;;;;1.15;1.1;;;;;;;3.93;100;94901.76;;;;
2020/10/28 03:50:25;;;;;;;1.15;1.1;;;;;;;3.93;100;94901.76;;;;
2020/10/28 03:51:26;;;;;;;1.15;1.1;;;;;;;3.93;100;94901.76;;;;
2020/10/28 03:52:26;;;;;;;1.15;1.1;;;;;;;3.93;100;94901.76;;;;
2020/10/28 03:53:27;;;;;;;1.15;1.1;;;;;;;3.93;100;94901.76;;;;
2020/10/28 03:54:27;;;;;;;1.2;1.1;;;;;;;4.16;100;94886.56;;;;
2020/10/28 03:55:28;;;;;;;1.2;1.1;;;;;;;4.16;100;94886.56;;;;
2020/10/28 03:56:28;;;;;;;1.2;1.1;;;;;;;4.16;100;94886.56;;;;
2020/10/28 03:57:29;;;;;;;1.2;1.1;;;;;;;4.16;100;94886.56;;;;
2020/10/28 03:58:29;;;;;;;1.2;1.1;;;;;;;4.16;100;94886.56;;;;
2020/10/28 03:59:32;;;;;;;1.2;1.1;;;;;;;4.16;100;94886.56;;;;
2020/10/28 04:00:32;;;;;;;1.2;1.1;;;;;;;4.16;100;94886.56;;;;
2020/10/28 04:01:33;;;;;;;1.2;1.1;;;;;;;4.16;100;94886.56;;;;
2020/10/28 04:02:33;;;;;;;1.2;1.1;;;;;;;4.16;100;94886.56;;;;
2020/10/28 04:03:35;;;;;;;1.2;1.1;;;;;;;4.16;100;94886.56;;;;
2020/10/28 04:04:35;;;;;;;1.2;1.1;;;;;;;4.16;100;94886.56;;;;
2020/10/28 04:05:36;;;;;;;1.3;1.2;;;;;;;4.33;100;94883.37;;;;
2020/10/28 04:06:36;;;;;;;1.3;1.2;;;;;;;4.33;100;94883.37;;;;
2020/10/28 04:07:37;;;;;;;1.3;1.2;;;;;;;4.33;100;94883.37;;;;
2020/10/28 04:08:37;;;;;;;1.3;1.2;;;;;;;4.33;100;94883.37;;;;
2020/10/28 04:09:38;;;;;;;1.3;1.2;;;;;;;4.33;100;94883.37;;;;
2020/10/28 04:10:38;;;;;;;1.3;1.2;;;;;;;4.33;100;94883.37;;;;
2020/10/28 04:11:39;;;;;;;1.3;1.2;;;;;;;4.33;100;94883.37;;;;
2020/10/28 04:12:39;;;;;;;1.3;1.2;;;;;;;4.33;100;94883.37;;;;
2020/10/28 04:13:40;;;;;;;1.3;1.2;;;;;;;4.33;100;94883.37;;;;
2020/10/28 04:14:40;;;;;;;1.3;1.2;;;;;;;4.33;100;94883.37;;;;
2020/10/28 04:15:41;;;;;;;1.4;1.3;;;;;;;4.57;100;94868.53;;;;
2020/10/28 04:16:41;;;;;;;1.4;1.3;;;;;;;4.57;100;94868.53;;;;
2020/10/28 04:17:42;;;;;;;1.4;1.3;;;;;;;4.57;100;94868.53;;;;
2020/10/28 04:18:42;;;;;;;1.4;1.3;;;;;;;4.57;100;94868.53;;;;
2020/10/28 04:19:43;;;;;;;1.4;1.3;;;;;;;4.57;100;94868.53;;;;
2020/10/28 04:20:43;;;;;;;1.4;1.3;;;;;;;4.57;100;94868.53;;;;
2020/10/28 04:21:44;;;;;;;1.4;1.3;;;;;;;4.57;100;94868.53;;;;
2020/10/28 04:22:44;;;;;;;1.4;1.3;;;;;;;4.57;100;94868.53;;;;
2020/10/28 04:23:45;;;;;;;1.4;1.3;;;;;;;4.57;100;94868.53;;;;
2020/10/28 04:24:46;;;;;;;1.4;1.3;;;;;;;4.57;100;94868.53;;;;
2020/10/28 04:25:49;;;;;;;1.4;1.3;;;;;;;4.57;100;94868.53;;;;
2020/10/28 04:26:50;;;;;;;1.2;1.1;;;;;;;4.7;100;94861.8;;;;
2020/10/28 04:27:51;;;;;;;1.2;1.1;;;;;;;4.7;100;94861.8;;;;
2020/10/28 04:28:51;;;;;;;1.2;1.1;;;;;;;4.7;100;94861.8;;;;
2020/10/28 04:29:53;;;;;;;1.2;1.1;;;;;;;4.7;100;94861.8;;;;
2020/10/28 04:30:54;;;;;;;1.2;1.1;;;;;;;4.7;100;94861.8;;;;
2020/10/28 04:31:54;;;;;;;1.2;1.1;;;;;;;4.7;100;94861.8;;;;
2020/10/28 04:32:55;;;;;;;1.2;1.1;;;;;;;4.7;100;94861.8;;;;
2020/10/28 04:33:56;;;;;;;1.2;1.1;;;;;;;4.7;100;94861.8;;;;
2020/10/28 04:34:56;;;;;;;1.2;1.1;;;;;;;4.7;100;94861.8;;;;
2020/10/28 04:35:57;;;;;;;1.2;1.1;;;;;;;4.7;100;94861.8;;;;
2020/10/28 04:36:57;;;;;;;1.95;1.2;;;;;;;4.86;100;94852.8;;;;
2020/10/28 04:37:58;;;;;;;1.95;1.2;;;;;;;4.86;100;94852.8;;;;
2020/10/28 04:38:58;;;;;;;1.95;1.2;;;;;;;4.86;100;94852.8;;;;
2020/10/28 04:39:59;;;;;;;1.95;1.2;;;;;;;4.86;100;94852.8;;;;
2020/10/28 04:41:00;;;;;;;1.95;1.2;;;;;;;4.86;100;94852.8;;;;
2020/10/28 04:42:00;;;;;;;1.95;1.2;;;;;;;4.86;100;94852.8;;;;
2020/10/28 04:43:01;;;;;;;1.95;1.2;;;;;;;4.86;100;94852.8;;;;
2020/10/28 04:44:02;;;;;;;1.95;1.2;;;;;;;4.86;100;94852.8;;;;
2020/10/28 04:45:02;;;;;;;1.95;1.2;;;;;;;4.86;100;94852.8;;;;
2020/10/28 04:46:03;;;;;;;1.95;1.2;;;;;;;4.86;100;94852.8;;;;
2020/10/28 04:47:04;;;;;;;1.95;1.2;;;;;;;4.86;100;94852.8;;;;
2020/10/28 04:48:07;;;;;;;1.3;1.2;;;;;;;5.02;100;94849.77;;;;
2020/10/28 04:49:08;;;;;;;1.3;1.2;;;;;;;5.02;100;94849.77;;;;
2020/10/28 04:50:08;;;;;;;1.3;1.2;;;;;;;5.02;100;94849.77;;;;
2020/10/28 04:51:09;;;;;;;1.3;1.2;;;;;;;5.02;100;94849.77;;;;
2020/10/28 04:52:09;;;;;;;1.3;1.2;;;;;;;5.02;100;94849.77;;;;
2020/10/28 04:53:10;;;;;;;1.3;1.2;;;;;;;5.02;100;94849.77;;;;
2020/10/28 04:54:10;;;;;;;1.3;1.2;;;;;;;5.02;100;94849.77;;;;
2020/10/28 04:55:11;;;;;;;1.3;1.2;;;;;;;5.02;100;94849.77;;;;
2020/10/28 04:56:21;;;;;;;1.3;1.2;;;;;;;5.02;100;94849.77;;;;
2020/10/28 04:57:21;;;;;;;1.3;1.2;;;;;;;5.02;100;94849.77;;;;
2020/10/28 04:58:28;;;;;;;1.7;1.2;;;;;;;5.21;100;94876.84;;;;
2020/10/28 04:59:29;;;;;;;1.7;1.2;;;;;;;5.21;100;94876.84;;;;
2020/10/28 05:00:31;;;;;;;1.7;1.2;;;;;;;5.21;100;94876.84;;;;
2020/10/28 05:01:34;;;;;;;1.7;1.2;;;;;;;5.21;100;94876.84;;;;
2020/10/28 05:02:35;;;;;;;1.7;1.2;;;;;;;5.21;100;94876.84;;;;
2020/10/28 05:03:37;;;;;;;1.7;1.2;;;;;;;5.21;100;94876.84;;;;
2020/10/28 05:04:42;;;;;;;1.7;1.2;;;;;;;5.21;100;94876.84;;;;
2020/10/28 05:05:43;;;;;;;1.7;1.2;;;;;;;5.21;100;94876.84;;;;
2020/10/28 05:06:50;;;;;;;1.7;1.2;;;;;;;5.21;100;94876.84;;;;
2020/10/28 05:07:51;;;;;;;1.7;1.2;;;;;;;5.21;100;94876.84;;;;
2020/10/28 05:08:52;;;;;;;1.2;1.1;;;;;;;5.33;100;94864.51;;;;
2020/10/28 05:10:02;;;;;;;1.2;1.1;;;;;;;5.33;100;94864.51;;;;
2020/10/28 05:11:03;;;;;;;1.2;1.1;;;;;;;5.33;100;94864.51;;;;
2020/10/28 05:12:21;;;;;;;1.2;1.1;;;;;;;5.33;100;94864.51;;;;
2020/10/28 05:13:21;;;;;;;1.2;1.1;;;;;;;5.33;100;94864.51;;;;
2020/10/28 05:14:33;;;;;;;1.2;1.1;;;;;;;5.33;100;94864.51;;;;
2020/10/28 05:15:36;;;;;;;1.2;1.1;;;;;;;5.33;100;94864.51;;;;
2020/10/28 05:16:36;;;;;;;1.2;1.1;;;;;;;5.33;100;94864.51;;;;
2020/10/28 05:17:41;;;;;;;1.2;1.1;;;;;;;5.33;100;94864.51;;;;
2020/10/28 05:18:43;;;;;;;1.2;1.1;;;;;;;5.33;100;94864.51;;;;
2020/10/28 05:19:45;;;;;;;1.2;1.1;;;;;;;5.49;100;94874.22;;;;
2020/10/28 05:20:46;;;;;;;1.2;1.1;;;;;;;5.49;100;94874.22;;;;
2020/10/28 05:21:53;;;;;;;1.2;1.1;;;;;;;5.49;100;94874.22;;;;
2020/10/28 05:22:54;;;;;;;1.2;1.1;;;;;;;5.49;100;94874.22;;;;
2020/10/28 05:23:55;;;;;;;1.2;1.1;;;;;;;5.49;100;94874.22;;;;
2020/10/28 05:25:05;;;;;;;1.2;1.1;;;;;;;5.49;100;94874.22;;;;
2020/10/28 05:26:05;;;;;;;1.2;1.1;;;;;;;5.49;100;94874.22;;;;
2020/10/28 05:27:24;;;;;;;1.2;1.1;;;;;;;5.49;100;94874.22;;;;
2020/10/28 05:28:25;;;;;;;1.2;1.1;;;;;;;5.49;100;94874.22;;;;
2020/10/28 05:29:25;;;;;;;1.2;1.1;;;;;;;5.49;100;94874.22;;;;
2020/10/28 05:30:28;;;;;;;1.15;1.05;;;;;;;5.57;100;94872.22;;;;
2020/10/28 05:31:28;;;;;;;1.15;1.05;;;;;;;5.57;100;94872.22;;;;
2020/10/28 05:32:34;;;;;;;1.15;1.05;;;;;;;5.57;100;94872.22;;;;
2020/10/28 05:33:36;;;;;;;1.15;1.05;;;;;;;5.57;100;94872.22;;;;
2020/10/28 05:34:37;;;;;;;1.15;1.05;;;;;;;5.57;100;94872.22;;;;
2020/10/28 05:35:37;;;;;;;1.15;1.05;;;;;;;5.57;100;94872.22;;;;
2020/10/28 05:36:39;;;;;;;1.15;1.05;;;;;;;5.57;100;94872.22;;;;
2020/10/28 05:37:39;;;;;;;1.15;1.05;;;;;;;5.57;100;94872.22;;;;
2020/10/28 05:38:41;;;;;;;1.15;1.05;;;;;;;5.57;100;94872.22;;;;
2020/10/28 05:39:43;;;;;;;1.15;1.05;;;;;;;5.57;100;94872.22;;;;
2020/10/28 05:40:43;;;;;;;1.15;1.05;;;;;;;5.57;100;94872.22;;;;
2020/10/28 05:41:44;;;;;;;1.5;1.3;;;;;;;5.71;100;94880.06;;;;
2020/10/28 05:42:44;;;;;;;1.5;1.3;;;;;;;5.71;100;94880.06;;;;
2020/10/28 05:43:46;;;;;;;1.5;1.3;;;;;;;5.71;100;94880.06;;;;
2020/10/28 05:44:51;;;;;;;1.5;1.3;;;;;;;5.71;100;94880.06;;;;
2020/10/28 05:45:53;;;;;;;1.5;1.3;;;;;;;5.71;100;94880.06;;;;
2020/10/28 05:46:53;;;;;;;1.5;1.3;;;;;;;5.71;100;94880.06;;;;
2020/10/28 05:47:54;;;;;;;1.5;1.3;;;;;;;5.71;100;94880.06;;;;
2020/10/28 05:48:55;;;;;;;1.5;1.3;;;;;;;5.71;100;94880.06;;;;
2020/10/28 05:49:56;;;;;;;1.5;1.3;;;;;;;5.71;100;94880.06;;;;
2020/10/28 05:51:14;;;;;;;1.5;1.3;;;;;;;5.71;100;94880.06;;;;
2020/10/28 05:52:14;;;;;;;1.65;1.45;;;;;;;5.75;100;94898.27;;;;
2020/10/28 05:53:15;;;;;;;1.65;1.45;;;;;;;5.75;100;94898.27;;;;
2020/10/28 05:54:15;;;;;;;1.65;1.45;;;;;;;5.75;100;94898.27;;;;
2020/10/28 05:55:16;;;;;;;1.65;1.45;;;;;;;5.75;100;94898.27;;;;
2020/10/28 05:56:19;;;;;;;1.65;1.45;;;;;;;5.75;100;94898.27;;;;
2020/10/28 05:57:20;;;;;;;1.65;1.45;;;;;;;5.75;100;94898.27;;;;
2020/10/28 05:58:37;;;;;;;1.65;1.45;;;;;;;5.75;100;94898.27;;;;
2020/10/28 06:00:02;;;;;;;1.65;1.45;;;;;;;5.75;100;94898.27;;;;
2020/10/28 06:01:05;;;;;;;1.65;1.45;;;;;;;5.75;100;94898.27;;;;
2020/10/28 06:02:06;;;;;;;1.5;1.4;;;;;;;5.85;100;94891.94;;;;
2020/10/28 06:03:06;;;;;;;1.5;1.4;;;;;;;5.85;100;94891.94;;;;
2020/10/28 06:04:07;;;;;;;1.5;1.4;;;;;;;5.85;100;94891.94;;;;
2020/10/28 06:05:08;;;;;;;1.5;1.4;;;;;;;5.85;100;94891.94;;;;
2020/10/28 06:06:08;;;;;;;1.5;1.4;;;;;;;5.85;100;94891.94;;;;
2020/10/28 06:07:09;;;;;;;1.5;1.4;;;;;;;5.85;100;94891.94;;;;
2020/10/28 06:08:30;;;;;;;1.5;1.4;;;;;;;5.85;100;94891.94;;;;
2020/10/28 06:09:33;;;;;;;1.5;1.4;;;;;;;5.85;100;94891.94;;;;
2020/10/28 06:10:39;;;;;;;1.5;1.4;;;;;;;5.85;100;94891.94;;;;
2020/10/28 06:11:40;;;;;;;1.5;1.4;;;;;;;5.85;100;94891.94;;;;
2020/10/28 06:12:40;;;;;;;1.5;1.4;;;;;;;5.85;100;94891.94;;;;
2020/10/28 06:13:43;;;;;;;2.4;1.3;;;;;;;5.93;100;94906.84;;;;
2020/10/28 06:14:43;;;;;;;2.4;1.3;;;;;;;5.93;100;94906.84;;;;
2020/10/28 06:15:44;;;;;;;2.4;1.3;;;;;;;5.93;100;94906.84;;;;
2020/10/28 06:16:44;;;;;;;2.4;1.3;;;;;;;5.93;100;94906.84;;;;
2020/10/28 06:17:44;;;;;;;2.4;1.3;;;;;;;5.93;100;94906.84;;;;
2020/10/28 06:18:45;;;;;;;2.4;1.3;;;;;;;5.93;100;94906.84;;;;
2020/10/28 06:19:46;;;;;;;2.4;1.3;;;;;;;5.93;100;94906.84;;;;
2020/10/28 06:20:46;;;;;;;2.4;1.3;;;;;;;5.93;100;94906.84;;;;
2020/10/28 06:21:47;;;;;;;2.4;1.3;;;;;;;5.93;100;94906.84;;;;
2020/10/28 06:22:47;;;;;;;2.4;1.3;;;;;;;5.93;100;94906.84;;;;
2020/10/28 06:23:48;;;;;;;2.2;1.4;;;;;;;6.06;100;94936.63;;;;
2020/10/28 06:24:49;;;;;;;2.2;1.4;;;;;;;6.06;100;94936.63;;;;
2020/10/28 06:25:49;;;;;;;2.2;1.4;;;;;;;6.06;100;94936.63;;;;
2020/10/28 06:26:53;;;;;;;2.2;1.4;;;;;;;6.06;100;94936.63;;;;
2020/10/28 06:27:54;;;;;;;2.2;1.4;;;;;;;6.06;100;94936.63;;;;
2020/10/28 06:28:54;;;;;;;2.2;1.4;;;;;;;6.06;100;94936.63;;;;